Time;durP1;ratioP1;P1;durP2;ratioP2;P2;SDS_P1;SDS_P2;PMS_P1;PMS_P2;Temp;Humidity;BMP_temperature;BMP_pressure;BME280_temperature;BME280_humidity;BME280_pressure;Samples;Min_cycle;Max_cycle;Signal;HPM_P1;HPM_P2
2023/02/16 00:01:52;;;;;;;54.47;26.77;;;7.20;99.90;;;;;;5070626;28;20193;-63
2023/02/16 00:04:21;;;;;;;76.97;36.33;;;7.20;99.90;;;;;;5070989;28;20188;-64
2023/02/16 00:06:49;;;;;;;74.23;33.17;;;7.20;99.90;;;;;;5052417;28;20212;-63
2023/02/16 00:09:16;;;;;;;68.17;30.13;;;7.10;99.90;;;;;;5048434;28;20188;-64
2023/02/16 00:14:29;;;;;;;46.33;23.10;;;7.20;99.90;;;;;;5069815;28;20675;-62
2023/02/16 00:16:59;;;;;;;62.23;29.07;;;7.20;99.90;;;;;;5071308;28;20245;-62
2023/02/16 00:19:28;;;;;;;69.27;30.60;;;7.20;99.90;;;;;;5069411;28;20254;-63
2023/02/16 00:21:57;;;;;;;65.83;29.73;;;7.20;99.90;;;;;;5074554;28;20188;-63
2023/02/16 00:24:26;;;;;;;59.47;27.50;;;7.10;99.90;;;;;;5070737;28;20193;-62
2023/02/16 00:26:53;;;;;;;57.53;26.97;;;7.10;99.90;;;;;;5069792;28;20203;-63
2023/02/16 00:29:24;;;;;;;62.40;28.53;;;7.10;99.90;;;;;;5071102;28;20196;-62
2023/02/16 00:31:52;;;;;;;54.83;26.13;;;7.10;99.90;;;;;;5053869;28;20205;-64
2023/02/16 00:34:31;;;;;;;66.10;28.17;;;7.10;99.90;;;;;;5049409;28;20217;-63
2023/02/16 00:37:00;;;;;;;50.30;24.47;;;7.10;99.90;;;;;;5051984;28;20201;-62
2023/02/16 00:39:27;;;;;;;55.63;25.67;;;7.20;99.90;;;;;;5074236;28;20208;-62
2023/02/16 00:41:57;;;;;;;53.30;24.53;;;7.10;99.90;;;;;;5070788;28;20658;-64
2023/02/16 00:44:31;;;;;;;52.93;24.00;;;7.20;99.90;;;;;;5070851;28;20267;-63
2023/02/16 00:47:03;;;;;;;52.33;24.40;;;7.20;99.90;;;;;;5054515;28;20212;-63
2023/02/16 00:49:32;;;;;;;63.60;28.50;;;7.20;99.90;;;;;;5069827;28;20221;-62
2023/02/16 00:51:59;;;;;;;58.13;26.00;;;7.20;99.90;;;;;;5071159;28;20216;-62
2023/02/16 00:54:26;;;;;;;59.23;26.43;;;7.20;99.90;;;;;;5070246;28;20203;-62
2023/02/16 00:56:53;;;;;;;49.37;22.97;;;7.20;99.90;;;;;;5053012;28;20198;-63
2023/02/16 00:59:23;;;;;;;51.50;23.97;;;7.30;99.90;;;;;;5068014;28;20753;-63
2023/02/16 01:01:50;;;;;;;46.60;22.43;;;7.30;99.90;;;;;;5070778;28;20224;-63
2023/02/16 01:04:21;;;;;;;55.33;25.83;;;7.30;99.90;;;;;;5072328;28;20209;-62
2023/02/16 01:12:21;;;;;;;57.97;26.37;;;7.30;99.90;;;;;;5070181;28;20243;-62
2023/02/16 01:14:52;;;;;;;55.33;25.40;;;7.20;99.90;;;;;;5067034;28;20204;-62
2023/02/16 01:17:19;;;;;;;52.73;24.37;;;7.20;99.90;;;;;;5076483;28;20280;-63
2023/02/16 01:19:47;;;;;;;55.57;24.47;;;7.30;99.90;;;;;;5042547;28;20228;-63
2023/02/16 01:22:17;;;;;;;46.07;21.57;;;7.20;99.90;;;;;;5041839;28;20305;-62
2023/02/16 01:24:44;;;;;;;71.10;30.93;;;7.20;99.90;;;;;;5051892;28;20201;-63
2023/02/16 01:27:13;;;;;;;58.47;25.97;;;7.20;99.90;;;;;;5067842;28;20272;-63
2023/02/16 01:29:40;;;;;;;55.30;25.23;;;7.10;99.90;;;;;;5069944;28;20254;-63
2023/02/16 01:32:11;;;;;;;54.93;24.27;;;7.20;99.90;;;;;;5040342;28;20313;-62
2023/02/16 01:34:39;;;;;;;50.60;22.43;;;7.10;99.90;;;;;;5070403;28;20613;-61
2023/02/16 01:37:06;;;;;;;52.10;23.30;;;7.10;99.90;;;;;;5070369;28;20196;-63
2023/02/16 01:39:36;;;;;;;55.33;25.47;;;7.10;99.90;;;;;;5071973;28;20254;-64
2023/02/16 01:42:13;;;;;;;57.80;25.73;;;7.10;99.90;;;;;;5059060;28;20189;-62
2023/02/16 01:44:45;;;;;;;51.17;23.13;;;7.10;99.90;;;;;;5069050;28;20241;-63
2023/02/16 01:47:29;;;;;;;62.43;26.87;;;7.10;99.90;;;;;;5069266;28;20200;-63
2023/02/16 01:49:56;;;;;;;51.37;23.50;;;7.00;99.90;;;;;;5069296;28;20200;-63
2023/02/16 01:52:30;;;;;;;65.57;27.90;;;7.00;99.90;;;;;;5040023;28;20227;-63
2023/02/16 01:55:05;;;;;;;56.43;25.30;;;7.00;99.90;;;;;;5041794;28;20206;-63
2023/02/16 01:57:41;;;;;;;51.67;24.33;;;7.00;99.90;;;;;;5067024;28;20193;-63
2023/02/16 02:00:13;;;;;;;55.13;24.43;;;7.00;99.90;;;;;;5052675;28;20659;-62
2023/02/16 02:02:48;;;;;;;68.47;29.77;;;7.00;99.90;;;;;;5070839;28;20295;-63
2023/02/16 02:05:34;;;;;;;70.93;29.90;;;7.00;99.90;;;;;;5068603;28;20204;-63
2023/02/16 02:08:09;;;;;;;72.63;30.10;;;7.00;99.90;;;;;;5067287;28;20185;-64
2023/02/16 02:10:45;;;;;;;50.40;24.07;;;6.90;99.90;;;;;;5068846;28;20558;-63
2023/02/16 02:13:20;;;;;;;66.20;29.23;;;6.90;99.90;;;;;;5041743;28;20331;-62
2023/02/16 02:15:48;;;;;;;59.37;25.03;;;6.90;99.90;;;;;;5039491;28;20668;-64
2023/02/16 02:18:15;;;;;;;67.27;28.93;;;6.90;99.90;;;;;;5051277;28;20249;-62
2023/02/16 02:24:01;;;;;;;57.97;26.03;;;6.90;99.90;;;;;;5050228;28;20199;-63
2023/02/16 02:26:55;;;;;;;69.07;29.60;;;6.90;99.90;;;;;;5039119;28;20202;-64
2023/02/16 02:29:46;;;;;;;58.73;26.97;;;6.90;99.90;;;;;;5037767;28;20216;-63
2023/02/16 02:32:23;;;;;;;51.83;23.60;;;6.90;99.90;;;;;;5038384;28;20303;-62
2023/02/16 02:35:02;;;;;;;56.73;24.13;;;6.90;99.90;;;;;;5067945;28;20196;-63
2023/02/16 02:37:44;;;;;;;42.10;19.57;;;6.90;99.90;;;;;;5040759;28;20677;-63
2023/02/16 02:40:17;;;;;;;56.47;23.80;;;7.00;99.90;;;;;;5046948;28;20197;-63
2023/02/16 02:42:55;;;;;;;67.30;29.27;;;7.00;99.90;;;;;;5067034;28;20446;-63
2023/02/16 02:45:26;;;;;;;63.43;28.00;;;7.00;99.90;;;;;;5068544;28;20207;-63
2023/02/16 02:47:55;;;;;;;55.80;24.80;;;6.90;99.90;;;;;;5035432;28;20206;-63
2023/02/16 02:53:28;;;;;;;69.07;28.93;;;6.80;99.90;;;;;;5062839;28;20199;-63
2023/02/16 03:01:30;;;;;;;56.07;24.37;;;6.80;99.90;;;;;;5046085;28;20196;-62
2023/02/16 03:04:00;;;;;;;42.20;20.43;;;6.80;99.90;;;;;;5065869;28;20263;-63
2023/02/16 03:06:30;;;;;;;50.00;22.83;;;6.90;99.90;;;;;;5045208;28;20198;-63
2023/02/16 03:09:02;;;;;;;53.37;24.13;;;6.90;99.90;;;;;;5065980;28;20579;-63
2023/02/16 03:14:18;;;;;;;44.57;21.03;;;7.00;99.90;;;;;;5065557;28;20203;-64
2023/02/16 03:16:48;;;;;;;51.40;22.77;;;7.00;99.90;;;;;;5066943;28;20195;-63
2023/02/16 03:30:24;;;;;;;62.97;27.07;;;6.90;99.90;;;;;;5068239;28;20204;-62
2023/02/16 03:32:51;;;;;;;64.10;27.23;;;6.90;99.90;;;;;;5066748;28;20824;-61
2023/02/16 03:35:19;;;;;;;56.47;24.77;;;6.90;99.90;;;;;;5043706;28;20208;-63
2023/02/16 03:37:47;;;;;;;59.93;24.77;;;6.90;99.90;;;;;;5067515;28;20615;-62
2023/02/16 03:40:29;;;;;;;57.00;24.80;;;6.90;99.90;;;;;;5073025;28;20200;-63
2023/02/16 03:42:58;;;;;;;50.27;21.30;;;6.90;99.90;;;;;;5067650;28;20215;-65
2023/02/16 03:45:27;;;;;;;59.27;25.03;;;6.90;99.90;;;;;;5065556;28;20701;-63
2023/02/16 03:47:55;;;;;;;62.17;24.07;;;6.90;99.90;;;;;;5066983;28;20218;-63
2023/02/16 03:50:22;;;;;;;61.10;26.27;;;6.90;99.90;;;;;;5067604;28;20214;-63
2023/02/16 03:52:49;;;;;;;54.63;23.40;;;6.80;99.90;;;;;;5046229;28;20947;-63
2023/02/16 03:55:16;;;;;;;65.63;28.77;;;6.80;99.90;;;;;;5065738;28;20575;-63
2023/02/16 03:57:44;;;;;;;58.23;25.00;;;6.80;99.90;;;;;;5068182;28;20197;-63
2023/02/16 04:00:12;;;;;;;48.40;22.00;;;6.80;99.90;;;;;;5071755;28;20204;-63
2023/02/16 04:02:45;;;;;;;47.50;21.63;;;6.80;99.90;;;;;;5067520;28;20195;-62
2023/02/16 04:05:12;;;;;;;52.97;22.17;;;6.80;99.90;;;;;;5064999;28;20200;-63
2023/02/16 04:07:39;;;;;;;47.63;20.83;;;6.80;99.90;;;;;;5044488;28;20208;-64
2023/02/16 04:10:07;;;;;;;40.60;18.80;;;6.90;99.90;;;;;;5076514;28;20196;-62
2023/02/16 04:12:36;;;;;;;43.33;18.80;;;6.90;99.90;;;;;;5045894;28;20561;-63
2023/02/16 04:15:03;;;;;;;40.17;18.10;;;6.90;99.90;;;;;;5066388;28;20258;-63
2023/02/16 04:17:31;;;;;;;39.40;17.63;;;6.90;99.90;;;;;;5049608;28;20649;-63
2023/02/16 04:19:59;;;;;;;49.30;20.70;;;6.50;99.90;;;;;;5066091;28;20229;-63
2023/02/16 04:22:26;;;;;;;37.43;16.80;;;7.00;99.90;;;;;;5067984;28;20648;-63
2023/02/16 04:24:53;;;;;;;42.67;18.67;;;6.90;99.90;;;;;;5066413;28;20272;-63
2023/02/16 04:27:20;;;;;;;38.30;17.30;;;7.00;99.90;;;;;;5075604;28;20193;-63
2023/02/16 04:29:48;;;;;;;36.90;17.63;;;7.00;99.90;;;;;;5067327;28;20201;-63
2023/02/16 04:32:15;;;;;;;35.83;17.03;;;7.00;99.90;;;;;;5067026;28;20291;-63
2023/02/16 04:34:42;;;;;;;44.30;19.53;;;7.00;99.90;;;;;;5066099;28;20209;-63
2023/02/16 04:37:10;;;;;;;35.33;16.53;;;7.00;99.90;;;;;;5068342;28;20246;-63
2023/02/16 04:39:38;;;;;;;44.73;20.00;;;7.00;99.90;;;;;;5045962;28;20193;-64
2023/02/16 04:42:05;;;;;;;35.20;16.73;;;7.00;99.90;;;;;;5070888;28;20213;-63
2023/02/16 04:44:32;;;;;;;43.97;20.47;;;7.00;99.90;;;;;;5049168;28;20201;-63
2023/02/16 04:46:59;;;;;;;40.60;19.00;;;6.90;99.90;;;;;;5070498;28;20200;-62
2023/02/16 04:49:29;;;;;;;49.87;21.93;;;6.90;99.90;;;;;;5045932;28;20207;-63
2023/02/16 04:51:56;;;;;;;47.03;21.10;;;7.00;99.90;;;;;;5046372;28;20222;-62
2023/02/16 04:54:24;;;;;;;57.73;22.93;;;7.00;99.90;;;;;;5070551;28;20197;-63
2023/02/16 04:56:51;;;;;;;50.80;22.13;;;6.90;99.90;;;;;;5067838;28;20181;-62
2023/02/16 04:59:19;;;;;;;41.13;18.23;;;6.90;99.90;;;;;;5068515;28;20207;-62
2023/02/16 05:01:46;;;;;;;39.93;17.23;;;7.00;99.90;;;;;;5051192;28;20197;-62
2023/02/16 05:04:13;;;;;;;38.27;16.93;;;7.00;99.90;;;;;;5067688;28;20204;-63
2023/02/16 05:06:40;;;;;;;33.13;15.97;;;7.00;99.90;;;;;;5070217;28;20196;-63
2023/02/16 05:09:07;;;;;;;57.23;24.90;;;7.10;99.90;;;;;;5069864;28;20300;-63
2023/02/16 05:17:07;;;;;;;49.47;21.13;;;7.00;99.90;;;;;;5055719;28;20783;-64
2023/02/16 05:19:34;;;;;;;45.47;19.70;;;6.90;99.90;;;;;;5068705;28;20250;-63
2023/02/16 05:22:01;;;;;;;37.73;17.20;;;7.00;99.90;;;;;;5069611;28;20560;-62
2023/02/16 05:24:28;;;;;;;50.50;21.80;;;6.90;99.90;;;;;;5038279;28;20266;-62
2023/02/16 05:26:57;;;;;;;48.30;21.37;;;6.90;99.90;;;;;;5074557;28;20204;-63
2023/02/16 05:29:24;;;;;;;44.23;20.57;;;6.90;99.90;;;;;;5070209;28;20537;-63
2023/02/16 05:31:51;;;;;;;43.03;19.53;;;6.90;99.90;;;;;;5069221;28;20612;-62
2023/02/16 05:34:19;;;;;;;43.60;19.50;;;6.90;99.90;;;;;;5049694;28;20266;-64
2023/02/16 05:36:46;;;;;;;36.43;16.07;;;6.90;99.90;;;;;;5070224;28;20615;-62
2023/02/16 05:39:13;;;;;;;49.27;21.30;;;7.00;99.90;;;;;;5072143;28;20284;-63
2023/02/16 05:41:40;;;;;;;50.87;21.67;;;6.90;99.90;;;;;;5076981;28;20713;-63
2023/02/16 05:44:09;;;;;;;42.50;19.07;;;6.90;99.90;;;;;;5069640;28;20247;-62
2023/02/16 05:46:39;;;;;;;44.27;19.63;;;6.90;99.90;;;;;;5037964;28;20197;-62
2023/02/16 05:49:07;;;;;;;47.97;19.93;;;6.90;99.90;;;;;;5044067;28;20316;-63
2023/02/16 05:51:34;;;;;;;35.37;16.13;;;6.80;99.90;;;;;;5072557;28;20195;-62
2023/02/16 05:54:02;;;;;;;39.33;18.03;;;6.80;99.90;;;;;;5046173;28;20217;-62
2023/02/16 05:56:29;;;;;;;39.63;18.50;;;6.80;99.90;;;;;;5066831;28;20200;-62
2023/02/16 05:59:00;;;;;;;39.57;17.97;;;6.90;99.90;;;;;;5048229;28;20220;-63
2023/02/16 06:01:28;;;;;;;41.67;17.77;;;6.90;99.90;;;;;;5046821;28;20209;-63
2023/02/16 06:03:56;;;;;;;45.20;18.70;;;6.90;99.90;;;;;;5075955;28;20192;-62
2023/02/16 06:06:23;;;;;;;40.00;17.13;;;6.90;99.90;;;;;;5068497;28;20245;-63
2023/02/16 06:08:50;;;;;;;43.67;19.13;;;7.40;99.90;;;;;;5048253;28;20204;-62
2023/02/16 06:14:02;;;;;;;47.77;20.70;;;6.90;99.90;;;;;;5079023;28;20204;-63
2023/02/16 06:16:32;;;;;;;43.50;18.43;;;6.90;99.90;;;;;;5069855;28;20216;-62
2023/02/16 06:19:00;;;;;;;39.87;18.10;;;6.90;99.90;;;;;;5044849;28;20233;-61
2023/02/16 06:21:28;;;;;;;43.30;18.43;;;6.90;99.90;;;;;;5049177;28;20203;-63
2023/02/16 06:23:55;;;;;;;38.17;16.47;;;6.90;99.90;;;;;;5069004;28;20192;-63
2023/02/16 06:26:22;;;;;;;38.37;16.87;;;6.90;99.90;;;;;;5066991;28;20509;-63
2023/02/16 06:28:49;;;;;;;46.03;18.77;;;6.90;99.90;;;;;;5068037;28;20201;-63
2023/02/16 06:31:16;;;;;;;47.50;19.73;;;6.90;99.90;;;;;;5071414;28;20604;-63
2023/02/16 06:33:45;;;;;;;42.40;18.73;;;7.00;99.90;;;;;;5067119;28;20214;-63
2023/02/16 06:36:12;;;;;;;39.23;18.20;;;7.00;99.90;;;;;;5063905;28;20196;-62
2023/02/16 06:38:39;;;;;;;41.97;18.43;;;7.00;99.90;;;;;;5079632;28;20193;-63
2023/02/16 06:41:07;;;;;;;49.00;21.73;;;7.00;99.90;;;;;;5067751;28;20640;-63
2023/02/16 06:43:34;;;;;;;41.10;18.30;;;6.90;99.90;;;;;;5051275;28;20219;-63
2023/02/16 06:46:01;;;;;;;46.57;20.17;;;6.90;99.90;;;;;;5068036;28;20564;-62
2023/02/16 06:48:28;;;;;;;48.70;21.10;;;6.90;99.90;;;;;;5067165;28;20215;-63
2023/02/16 06:50:57;;;;;;;38.77;17.73;;;6.90;99.90;;;;;;5053415;28;20215;-62
2023/02/16 06:53:25;;;;;;;32.67;15.43;;;6.90;99.90;;;;;;5052904;28;20577;-63
2023/02/16 06:55:52;;;;;;;31.80;14.60;;;6.90;99.90;;;;;;5066153;28;20268;-63
2023/02/16 06:58:19;;;;;;;32.57;14.27;;;6.90;99.90;;;;;;5065516;28;20197;-62
2023/02/16 07:00:46;;;;;;;39.27;17.27;;;6.90;99.90;;;;;;5061975;28;20193;-63
2023/02/16 07:03:14;;;;;;;42.57;18.97;;;6.90;99.90;;;;;;5070099;28;20192;-63
2023/02/16 07:05:42;;;;;;;37.07;16.17;;;6.90;99.90;;;;;;5073039;28;20255;-63
2023/02/16 07:08:11;;;;;;;36.13;16.30;;;6.90;99.90;;;;;;5062797;28;20204;-63
2023/02/16 07:10:42;;;;;;;31.17;14.33;;;6.90;99.90;;;;;;5061940;28;20193;-63
2023/02/16 07:13:10;;;;;;;36.87;16.63;;;6.90;99.90;;;;;;5043426;28;20598;-62
2023/02/16 07:15:37;;;;;;;37.73;16.20;;;6.90;99.90;;;;;;5041367;28;20194;-62
2023/02/16 07:18:04;;;;;;;37.17;16.53;;;6.90;99.90;;;;;;5069887;28;20258;-62
2023/02/16 07:20:32;;;;;;;37.83;16.53;;;6.90;99.90;;;;;;5064475;28;20210;-63
2023/02/16 07:22:59;;;;;;;41.63;16.80;;;6.90;99.90;;;;;;5064485;28;20185;-63
2023/02/16 07:25:28;;;;;;;37.00;16.07;;;6.90;99.90;;;;;;5063079;28;20212;-63
2023/02/16 07:27:55;;;;;;;39.73;16.87;;;6.90;99.90;;;;;;5064687;28;20224;-63
2023/02/16 07:30:22;;;;;;;41.60;18.17;;;6.90;99.90;;;;;;5064801;28;20219;-62
2023/02/16 07:32:49;;;;;;;42.10;17.87;;;6.90;99.90;;;;;;5063760;28;20227;-62
2023/02/16 07:35:16;;;;;;;36.30;15.43;;;6.90;99.90;;;;;;5062936;28;20613;-63
2023/02/16 07:37:44;;;;;;;27.40;12.30;;;6.90;99.90;;;;;;5065348;28;20614;-62
2023/02/16 07:40:14;;;;;;;36.33;15.50;;;6.90;99.90;;;;;;5070998;28;20212;-63
2023/02/16 07:42:42;;;;;;;49.13;19.87;;;6.90;99.90;;;;;;5046770;28;20220;-63
2023/02/16 07:45:10;;;;;;;47.87;20.87;;;6.90;99.90;;;;;;5065584;28;20193;-62
2023/02/16 07:47:37;;;;;;;40.97;18.97;;;6.90;99.90;;;;;;5061967;28;20372;-63
2023/02/16 07:50:05;;;;;;;38.37;16.83;;;6.90;99.90;;;;;;5067929;28;20561;-63
2023/02/16 07:52:32;;;;;;;50.83;21.47;;;6.90;99.90;;;;;;5066015;28;20255;-63
2023/02/16 07:54:59;;;;;;;45.67;19.70;;;6.90;99.90;;;;;;5065527;28;20195;-63
2023/02/16 07:57:28;;;;;;;40.63;18.03;;;6.80;99.90;;;;;;5063227;28;20193;-62
2023/02/16 07:59:56;;;;;;;35.13;15.70;;;6.90;99.90;;;;;;5074207;28;20189;-64
2023/02/16 08:02:26;;;;;;;32.20;14.60;;;6.90;99.90;;;;;;5069416;28;21533;-62
2023/02/16 08:04:53;;;;;;;30.33;13.33;;;6.90;99.90;;;;;;5061909;28;20203;-63
2023/02/16 08:07:21;;;;;;;32.27;15.17;;;6.90;99.90;;;;;;5045734;28;20211;-63
2023/02/16 08:09:48;;;;;;;37.90;16.43;;;6.90;99.90;;;;;;5063019;28;20204;-62
2023/02/16 08:12:16;;;;;;;34.33;15.00;;;7.00;99.90;;;;;;5068927;28;20208;-63
2023/02/16 08:14:45;;;;;;;34.17;14.57;;;7.00;99.90;;;;;;5069921;28;20204;-61
2023/02/16 08:17:15;;;;;;;29.70;13.57;;;7.00;99.90;;;;;;5051519;28;20204;-62
2023/02/16 08:19:43;;;;;;;30.70;14.67;;;7.00;99.90;;;;;;5066943;28;20228;-63
2023/02/16 08:22:11;;;;;;;31.97;15.10;;;7.00;99.90;;;;;;5067206;28;20205;-62
2023/02/16 08:24:38;;;;;;;32.33;14.47;;;7.00;99.90;;;;;;5068909;28;20644;-63
2023/02/16 08:27:06;;;;;;;33.10;13.53;;;7.10;99.90;;;;;;5068095;28;20203;-62
2023/02/16 08:29:33;;;;;;;32.27;14.03;;;7.10;99.90;;;;;;5067592;28;20200;-62
2023/02/16 08:32:06;;;;;;;25.43;11.57;;;7.10;99.90;;;;;;5066568;28;20198;-62
2023/02/16 08:34:38;;;;;;;28.07;12.17;;;7.10;99.90;;;;;;5068234;28;20197;-63
2023/02/16 08:37:06;;;;;;;28.10;12.97;;;7.10;99.90;;;;;;5052188;28;20228;-63
2023/02/16 08:39:34;;;;;;;33.33;14.97;;;7.10;99.90;;;;;;5068732;28;20201;-63
2023/02/16 08:42:02;;;;;;;38.50;15.23;;;7.10;99.90;;;;;;5067551;28;20246;-63
2023/02/16 08:44:29;;;;;;;33.10;14.33;;;7.10;99.90;;;;;;5067398;28;20185;-63
2023/02/16 08:46:59;;;;;;;45.57;20.00;;;7.10;99.90;;;;;;5066391;28;20601;-64
2023/02/16 08:49:27;;;;;;;42.33;18.20;;;7.10;99.90;;;;;;5050527;28;20212;-63
2023/02/16 08:51:57;;;;;;;41.70;17.93;;;7.10;99.90;;;;;;5067602;28;20607;-65
2023/02/16 08:54:28;;;;;;;32.30;14.87;;;7.10;99.90;;;;;;5067010;28;20202;-64
2023/02/16 08:57:02;;;;;;;49.70;21.30;;;7.10;99.90;;;;;;5067064;28;20197;-62
2023/02/16 08:59:35;;;;;;;39.20;16.83;;;7.20;99.90;;;;;;5071095;28;20639;-63
2023/02/16 09:02:02;;;;;;;37.30;16.60;;;7.10;99.90;;;;;;5075348;28;20279;-62
2023/02/16 09:04:30;;;;;;;28.53;13.73;;;7.10;99.90;;;;;;5063865;28;20223;-62
2023/02/16 09:06:59;;;;;;;34.13;15.10;;;7.20;99.90;;;;;;5067039;28;20707;-62
2023/02/16 09:09:27;;;;;;;34.00;15.37;;;7.20;99.90;;;;;;5071154;28;20197;-62
2023/02/16 09:11:57;;;;;;;45.50;18.77;;;7.20;99.90;;;;;;5065551;28;20194;-62
2023/02/16 09:14:25;;;;;;;48.50;21.23;;;7.30;99.90;;;;;;5069552;28;20641;-63
2023/02/16 09:16:52;;;;;;;59.60;24.10;;;7.30;99.90;;;;;;5066919;28;20193;-63
2023/02/16 09:19:21;;;;;;;46.67;20.00;;;7.20;99.90;;;;;;5066994;28;20232;-63
2023/02/16 09:21:49;;;;;;;39.13;17.60;;;7.20;99.90;;;;;;5066771;28;20255;-61
2023/02/16 09:24:18;;;;;;;33.30;14.73;;;7.30;99.90;;;;;;5063288;28;20209;-62
2023/02/16 09:26:45;;;;;;;33.00;14.50;;;7.30;99.90;;;;;;5041875;28;20200;-63
2023/02/16 09:29:12;;;;;;;30.40;13.00;;;7.40;99.90;;;;;;5065626;28;20193;-63
2023/02/16 09:31:40;;;;;;;38.60;17.33;;;7.50;99.90;;;;;;5065721;28;20193;-62
2023/02/16 09:34:13;;;;;;;34.20;16.00;;;7.50;99.90;;;;;;5066639;28;20236;-62
2023/02/16 09:36:41;;;;;;;45.57;19.90;;;7.50;99.90;;;;;;5069992;28;20189;-63
2023/02/16 09:39:08;;;;;;;40.33;17.10;;;7.60;99.90;;;;;;5067957;28;20635;-63
2023/02/16 09:42:00;;;;;;;38.20;16.87;;;7.60;99.90;;;;;;5064960;28;20240;-63
2023/02/16 09:44:37;;;;;;;30.37;14.13;;;7.60;99.90;;;;;;5066900;28;20185;-63
2023/02/16 09:47:11;;;;;;;32.80;13.83;;;7.70;99.90;;;;;;5042301;28;20197;-63
2023/02/16 09:49:41;;;;;;;32.97;14.43;;;7.70;99.90;;;;;;5065417;28;20190;-62
2023/02/16 09:52:17;;;;;;;34.13;15.10;;;7.80;99.90;;;;;;5070475;28;20664;-63
2023/02/16 09:54:48;;;;;;;44.53;18.33;;;7.80;99.90;;;;;;5066485;28;20209;-61
2023/02/16 09:57:26;;;;;;;44.50;18.87;;;7.90;99.90;;;;;;5047157;28;20252;-62
2023/02/16 09:59:59;;;;;;;37.93;17.30;;;7.90;99.90;;;;;;5040516;28;20193;-62
2023/02/16 10:02:45;;;;;;;34.87;16.03;;;8.00;99.90;;;;;;5036410;28;20209;-62
2023/02/16 10:05:19;;;;;;;38.27;16.87;;;8.10;99.90;;;;;;5048451;28;20669;-63
2023/02/16 10:07:57;;;;;;;43.50;17.33;;;8.30;99.90;;;;;;5064823;28;20263;-63
2023/02/16 10:10:33;;;;;;;51.10;21.53;;;8.50;99.90;;;;;;5065869;28;20246;-62
2023/02/16 10:13:04;;;;;;;46.50;19.63;;;8.50;99.90;;;;;;5064203;28;20244;-62
2023/02/16 10:15:33;;;;;;;40.43;17.93;;;8.60;99.90;;;;;;5040163;28;21607;-64
2023/02/16 10:18:07;;;;;;;43.03;19.63;;;8.70;99.90;;;;;;5063463;28;20325;-63
2023/02/16 10:20:37;;;;;;;49.03;21.33;;;8.80;99.90;;;;;;5054865;28;20645;-63
2023/02/16 10:23:14;;;;;;;41.03;19.13;;;8.90;99.90;;;;;;5065810;28;20561;-63
2023/02/16 10:25:47;;;;;;;42.90;19.00;;;9.10;99.90;;;;;;5066546;28;20189;-62
2023/02/16 10:28:20;;;;;;;44.93;20.53;;;9.30;99.90;;;;;;5034867;28;20215;-63
2023/02/16 10:30:53;;;;;;;44.07;19.07;;;9.50;99.90;;;;;;5066350;28;20208;-62
2023/02/16 10:33:37;;;;;;;31.80;15.47;;;9.60;99.90;;;;;;5066207;28;20820;-63
2023/02/16 10:36:29;;;;;;;47.53;20.80;;;9.80;99.90;;;;;;5063803;28;20194;-63
2023/02/16 10:39:02;;;;;;;38.33;18.00;;;10.10;99.10;;;;;;5061987;28;20259;-63
2023/02/16 10:41:35;;;;;;;37.97;17.60;;;10.30;98.90;;;;;;5068305;28;20202;-62
2023/02/16 10:44:13;;;;;;;35.37;16.13;;;10.50;98.80;;;;;;5071274;28;20197;-63
2023/02/16 10:46:44;;;;;;;42.53;19.40;;;10.60;98.50;;;;;;5064753;28;20195;-63
2023/02/16 10:49:14;;;;;;;49.33;21.93;;;10.70;98.10;;;;;;5048841;28;20662;-61
2023/02/16 10:51:45;;;;;;;47.20;21.70;;;10.70;97.70;;;;;;5065856;28;20201;-62
2023/02/16 10:54:17;;;;;;;39.67;18.90;;;10.70;97.50;;;;;;5069804;28;20711;-61
2023/02/16 10:56:52;;;;;;;47.60;20.50;;;10.70;97.60;;;;;;5066333;28;20220;-62
2023/02/16 10:59:23;;;;;;;47.13;21.90;;;10.70;97.50;;;;;;5044398;28;20595;-60
2023/02/16 11:01:55;;;;;;;45.17;20.87;;;10.60;97.30;;;;;;5056061;28;20246;-63
2023/02/16 11:04:38;;;;;;;46.40;20.23;;;10.60;97.30;;;;;;5066017;28;20304;-63
2023/02/16 11:07:08;;;;;;;42.30;20.43;;;10.60;97.30;;;;;;5039519;28;20205;-63
2023/02/16 11:09:36;;;;;;;41.63;19.90;;;10.50;97.10;;;;;;5039690;28;20202;-62
2023/02/16 11:12:15;;;;;;;41.50;19.47;;;10.40;97.10;;;;;;5063124;28;20200;-63
2023/02/16 11:14:50;;;;;;;42.50;19.10;;;10.30;97.20;;;;;;5063485;28;20228;-62
2023/02/16 11:17:19;;;;;;;35.10;17.23;;;10.20;97.40;;;;;;5062237;28;20223;-63
2023/02/16 11:19:53;;;;;;;31.77;16.20;;;10.10;97.40;;;;;;5064267;28;20229;-63
2023/02/16 11:22:30;;;;;;;32.03;15.73;;;10.00;97.60;;;;;;5063849;28;20189;-63
2023/02/16 11:25:13;;;;;;;36.37;17.27;;;10.00;97.70;;;;;;5058279;28;20197;-62
2023/02/16 11:27:51;;;;;;;41.77;20.10;;;10.00;97.70;;;;;;5036366;28;20205;-62
2023/02/16 11:30:30;;;;;;;42.57;20.00;;;10.00;97.70;;;;;;5062589;28;20285;-62
2023/02/16 11:33:00;;;;;;;41.10;19.47;;;10.10;97.70;;;;;;5065873;28;20223;-62
2023/02/16 11:35:27;;;;;;;35.27;16.27;;;10.10;97.60;;;;;;5063639;28;20207;-62
2023/02/16 11:37:55;;;;;;;47.33;21.37;;;10.20;97.70;;;;;;5058235;28;20230;-63
2023/02/16 11:40:24;;;;;;;41.67;19.30;;;10.20;97.50;;;;;;5065146;28;20193;-62
2023/02/16 11:42:53;;;;;;;39.00;17.67;;;10.20;97.50;;;;;;5061018;28;20192;-62
2023/02/16 11:45:29;;;;;;;38.87;18.63;;;10.20;97.60;;;;;;5062722;28;20577;-62
2023/02/16 11:47:59;;;;;;;42.20;20.20;;;10.20;97.50;;;;;;5072099;28;20196;-63
2023/02/16 11:50:29;;;;;;;47.23;21.97;;;10.20;97.50;;;;;;5066603;28;20421;-62
2023/02/16 11:52:59;;;;;;;43.67;20.43;;;10.20;97.40;;;;;;5045070;28;20200;-63
2023/02/16 11:55:31;;;;;;;43.00;20.17;;;10.30;97.40;;;;;;5067646;28;20203;-62
2023/02/16 11:58:15;;;;;;;39.10;18.97;;;10.50;97.40;;;;;;5060500;28;20204;-62
2023/02/16 12:00:52;;;;;;;43.23;19.53;;;10.70;97.40;;;;;;5069639;28;20213;-62
2023/02/16 12:03:45;;;;;;;34.23;17.47;;;10.90;97.20;;;;;;5046051;28;20205;-62
2023/02/16 12:06:30;;;;;;;33.47;16.13;;;11.10;97.00;;;;;;5068473;28;20187;-62
2023/02/16 12:09:15;;;;;;;45.10;20.23;;;11.10;96.90;;;;;;5043915;28;20227;-64
2023/02/16 12:11:57;;;;;;;38.27;18.67;;;11.00;96.50;;;;;;5066294;28;20197;-63
2023/02/16 12:14:36;;;;;;;40.80;19.20;;;10.90;96.60;;;;;;5047681;28;20217;-63
2023/02/16 12:17:15;;;;;;;31.77;15.27;;;10.90;96.80;;;;;;5067795;28;20201;-62
2023/02/16 12:19:45;;;;;;;37.23;16.57;;;10.90;97.00;;;;;;5065805;28;20306;-62
2023/02/16 12:22:34;;;;;;;33.53;16.73;;;11.10;97.20;;;;;;5068557;28;20198;-62
2023/02/16 12:25:13;;;;;;;40.83;19.43;;;11.40;97.10;;;;;;5051007;28;20567;-62
2023/02/16 12:27:48;;;;;;;44.73;20.07;;;11.70;96.70;;;;;;5068256;28;20207;-63
2023/02/16 12:30:32;;;;;;;36.20;16.77;;;11.90;96.20;;;;;;5066482;28;20592;-62
2023/02/16 12:33:16;;;;;;;33.37;16.73;;;11.80;96.30;;;;;;5043555;28;20202;-62
2023/02/16 12:36:13;;;;;;;42.40;19.83;;;11.80;96.30;;;;;;5065213;28;20208;-63
2023/02/16 12:38:51;;;;;;;44.03;20.47;;;11.70;96.10;;;;;;5064699;28;20203;-62
2023/02/16 12:41:29;;;;;;;46.83;21.60;;;11.60;96.50;;;;;;5068067;28;20192;-63
2023/02/16 12:44:02;;;;;;;33.70;17.67;;;11.50;96.40;;;;;;5066607;28;20204;-63
2023/02/16 12:46:36;;;;;;;44.20;20.67;;;11.60;96.60;;;;;;5064273;28;20663;-63
2023/02/16 12:49:12;;;;;;;38.47;18.60;;;11.60;96.50;;;;;;5067013;28;20220;-63
2023/02/16 12:51:45;;;;;;;36.10;18.00;;;11.60;96.50;;;;;;5041570;28;20729;-62
2023/02/16 12:54:17;;;;;;;28.00;14.20;;;11.60;96.60;;;;;;5065700;28;20189;-63
2023/02/16 12:56:49;;;;;;;27.00;13.77;;;11.70;96.80;;;;;;5068386;28;20698;-62
2023/02/16 12:59:22;;;;;;;29.63;14.30;;;11.80;96.80;;;;;;5065589;28;20684;-63
2023/02/16 13:01:52;;;;;;;26.67;13.43;;;11.80;96.70;;;;;;5067210;28;20197;-64
2023/02/16 13:04:27;;;;;;;30.63;14.23;;;11.90;96.80;;;;;;5065159;28;20205;-63
2023/02/16 13:07:02;;;;;;;41.13;18.30;;;12.00;96.80;;;;;;5048344;28;20242;-61
2023/02/16 13:09:40;;;;;;;34.47;15.87;;;12.00;96.60;;;;;;5068101;28;20192;-62
2023/02/16 13:12:17;;;;;;;48.13;21.37;;;12.00;96.70;;;;;;5068289;28;20208;-62
2023/02/16 13:14:53;;;;;;;54.60;25.10;;;12.10;96.40;;;;;;5066140;28;20296;-62
2023/02/16 13:17:34;;;;;;;41.37;19.80;;;12.10;96.00;;;;;;5064855;28;20197;-62
2023/02/16 13:20:03;;;;;;;32.67;15.77;;;12.20;96.20;;;;;;5066378;28;20224;-63
2023/02/16 13:22:58;;;;;;;29.07;15.27;;;12.30;96.10;;;;;;5066301;28;20194;-62
2023/02/16 13:25:47;;;;;;;30.60;15.60;;;12.40;96.10;;;;;;5065220;28;20204;-63
2023/02/16 13:28:50;;;;;;;39.30;18.13;;;12.50;96.00;;;;;;5067342;28;20258;-62
2023/02/16 13:31:43;;;;;;;48.23;23.67;;;12.50;95.80;;;;;;5065479;28;20377;-62
2023/02/16 13:34:47;;;;;;;45.77;21.20;;;12.50;95.60;;;;;;5065565;28;20219;-63
2023/02/16 13:37:36;;;;;;;34.80;17.67;;;12.50;95.60;;;;;;5039513;28;20200;-63
2023/02/16 13:40:31;;;;;;;30.10;15.43;;;12.50;95.60;;;;;;5050488;28;20202;-63